sensor_id;sensor_type;location;lat;lon;timestamp;P1;durP1;ratioP1;P2;durP2;ratioP2
56171;SDS011;42052;41.634;-0.946;2022-09-09T00:04:35;0.75;;;0.40;;
56171;SDS011;42052;41.634;-0.946;2022-09-09T00:09:53;1.67;;;0.70;;
56171;SDS011;42052;41.634;-0.946;2022-09-09T00:15:22;1.23;;;0.40;;
56171;SDS011;42052;41.634;-0.946;2022-09-09T00:23:14;2.00;;;0.40;;
56171;SDS011;42052;41.634;-0.946;2022-09-09T00:25:59;1.17;;;0.50;;
56171;SDS011;42052;41.634;-0.946;2022-09-09T00:28:36;0.90;;;0.40;;
56171;SDS011;42052;41.634;-0.946;2022-09-09T00:31:16;1.00;;;0.50;;
56171;SDS011;42052;41.634;-0.946;2022-09-09T00:33:54;0.85;;;0.38;;
56171;SDS011;42052;41.634;-0.946;2022-09-09T00:36:27;0.65;;;0.40;;
56171;SDS011;42052;41.634;-0.946;2022-09-09T00:38:59;1.00;;;0.30;;
56171;SDS011;42052;41.634;-0.946;2022-09-09T00:41:38;0.63;;;0.30;;
56171;SDS011;42052;41.634;-0.946;2022-09-09T00:44:31;1.05;;;0.35;;
56171;SDS011;42052;41.634;-0.946;2022-09-09T00:50:00;3.25;;;0.40;;
56171;SDS011;42052;41.634;-0.946;2022-09-09T00:57:51;1.23;;;0.35;;
56171;SDS011;42052;41.634;-0.946;2022-09-09T01:08:30;0.45;;;0.30;;
56171;SDS011;42052;41.634;-0.946;2022-09-09T01:11:26;1.23;;;0.22;;
56171;SDS011;42052;41.634;-0.946;2022-09-09T01:14:16;0.47;;;0.28;;
56171;SDS011;42052;41.634;-0.946;2022-09-09T01:16:55;0.40;;;0.20;;
56171;SDS011;42052;41.634;-0.946;2022-09-09T01:22:09;0.50;;;0.28;;
56171;SDS011;42052;41.634;-0.946;2022-09-09T01:28:08;0.60;;;0.30;;
56171;SDS011;42052;41.634;-0.946;2022-09-09T01:30:43;1.30;;;0.20;;
56171;SDS011;42052;41.634;-0.946;2022-09-09T01:33:16;1.23;;;0.25;;
56171;SDS011;42052;41.634;-0.946;2022-09-09T01:38:19;0.47;;;0.30;;
56171;SDS011;42052;41.634;-0.946;2022-09-09T01:40:46;0.63;;;0.17;;
56171;SDS011;42052;41.634;-0.946;2022-09-09T01:43:12;0.40;;;0.20;;
56171;SDS011;42052;41.634;-0.946;2022-09-09T01:45:39;2.28;;;0.22;;
56171;SDS011;42052;41.634;-0.946;2022-09-09T01:48:08;0.68;;;0.30;;
56171;SDS011;42052;41.634;-0.946;2022-09-09T01:50:34;0.90;;;0.22;;
56171;SDS011;42052;41.634;-0.946;2022-09-09T01:53:00;0.70;;;0.30;;
56171;SDS011;42052;41.634;-0.946;2022-09-09T02:04:14;0.65;;;0.30;;
56171;SDS011;42052;41.634;-0.946;2022-09-09T02:06:43;0.52;;;0.25;;
56171;SDS011;42052;41.634;-0.946;2022-09-09T02:09:13;2.25;;;0.30;;
56171;SDS011;42052;41.634;-0.946;2022-09-09T02:11:44;2.30;;;0.30;;
56171;SDS011;42052;41.634;-0.946;2022-09-09T02:14:16;1.85;;;0.28;;
56171;SDS011;42052;41.634;-0.946;2022-09-09T02:16:56;0.93;;;0.20;;
56171;SDS011;42052;41.634;-0.946;2022-09-09T02:19:32;2.20;;;0.40;;
56171;SDS011;42052;41.634;-0.946;2022-09-09T02:22:04;0.40;;;0.20;;
56171;SDS011;42052;41.634;-0.946;2022-09-09T02:24:31;1.15;;;0.50;;
56171;SDS011;42052;41.634;-0.946;2022-09-09T02:27:00;1.30;;;0.40;;
56171;SDS011;42052;41.634;-0.946;2022-09-09T02:29:30;1.55;;;0.40;;
56171;SDS011;42052;41.634;-0.946;2022-09-09T02:32:03;1.15;;;0.43;;
56171;SDS011;42052;41.634;-0.946;2022-09-09T02:34:33;1.08;;;0.30;;
56171;SDS011;42052;41.634;-0.946;2022-09-09T02:37:02;1.25;;;0.40;;
56171;SDS011;42052;41.634;-0.946;2022-09-09T02:39:29;0.88;;;0.30;;
56171;SDS011;42052;41.634;-0.946;2022-09-09T02:41:55;0.63;;;0.40;;
56171;SDS011;42052;41.634;-0.946;2022-09-09T02:44:21;2.38;;;0.60;;
56171;SDS011;42052;41.634;-0.946;2022-09-09T02:49:58;0.85;;;0.40;;
56171;SDS011;42052;41.634;-0.946;2022-09-09T02:58:01;1.90;;;0.60;;
56171;SDS011;42052;41.634;-0.946;2022-09-09T03:00:31;1.52;;;0.40;;
56171;SDS011;42052;41.634;-0.946;2022-09-09T03:02:57;2.30;;;0.50;;
56171;SDS011;42052;41.634;-0.946;2022-09-09T03:05:23;2.38;;;0.60;;
56171;SDS011;42052;41.634;-0.946;2022-09-09T03:07:49;3.08;;;0.50;;
56171;SDS011;42052;41.634;-0.946;2022-09-09T03:10:16;3.13;;;0.60;;
56171;SDS011;42052;41.634;-0.946;2022-09-09T03:12:42;1.65;;;0.57;;
56171;SDS011;42052;41.634;-0.946;2022-09-09T03:15:08;2.40;;;0.70;;
56171;SDS011;42052;41.634;-0.946;2022-09-09T03:17:35;1.58;;;0.60;;
56171;SDS011;42052;41.634;-0.946;2022-09-09T03:20:02;2.90;;;0.77;;
56171;SDS011;42052;41.634;-0.946;2022-09-09T03:22:32;1.55;;;0.60;;
56171;SDS011;42052;41.634;-0.946;2022-09-09T03:24:58;1.92;;;0.63;;
56171;SDS011;42052;41.634;-0.946;2022-09-09T03:27:24;2.40;;;0.80;;
56171;SDS011;42052;41.634;-0.946;2022-09-09T03:29:50;2.22;;;0.70;;
56171;SDS011;42052;41.634;-0.946;2022-09-09T03:32:16;1.75;;;0.85;;
56171;SDS011;42052;41.634;-0.946;2022-09-09T03:34:43;4.00;;;0.88;;
56171;SDS011;42052;41.634;-0.946;2022-09-09T03:37:09;2.13;;;0.88;;
56171;SDS011;42052;41.634;-0.946;2022-09-09T03:39:35;2.25;;;0.77;;
56171;SDS011;42052;41.634;-0.946;2022-09-09T03:42:01;2.42;;;0.88;;
56171;SDS011;42052;41.634;-0.946;2022-09-09T03:44:29;1.98;;;0.80;;
56171;SDS011;42052;41.634;-0.946;2022-09-09T03:46:55;1.60;;;0.60;;
56171;SDS011;42052;41.634;-0.946;2022-09-09T03:49:21;1.70;;;0.77;;
56171;SDS011;42052;41.634;-0.946;2022-09-09T03:51:47;2.17;;;0.90;;
56171;SDS011;42052;41.634;-0.946;2022-09-09T03:54:13;2.85;;;0.88;;
56171;SDS011;42052;41.634;-0.946;2022-09-09T03:56:39;2.72;;;0.80;;
56171;SDS011;42052;41.634;-0.946;2022-09-09T03:59:06;2.22;;;0.82;;
56171;SDS011;42052;41.634;-0.946;2022-09-09T04:01:33;2.83;;;0.90;;
56171;SDS011;42052;41.634;-0.946;2022-09-09T04:03:59;2.90;;;1.10;;
56171;SDS011;42052;41.634;-0.946;2022-09-09T04:06:27;2.58;;;1.00;;
56171;SDS011;42052;41.634;-0.946;2022-09-09T04:08:53;2.85;;;0.90;;
56171;SDS011;42052;41.634;-0.946;2022-09-09T04:11:20;2.47;;;0.80;;
56171;SDS011;42052;41.634;-0.946;2022-09-09T04:13:47;3.25;;;1.00;;
56171;SDS011;42052;41.634;-0.946;2022-09-09T04:16:14;2.60;;;0.80;;
56171;SDS011;42052;41.634;-0.946;2022-09-09T04:18:41;1.58;;;0.77;;
56171;SDS011;42052;41.634;-0.946;2022-09-09T04:21:08;2.20;;;0.90;;
56171;SDS011;42052;41.634;-0.946;2022-09-09T04:23:35;2.42;;;0.73;;
56171;SDS011;42052;41.634;-0.946;2022-09-09T04:26:01;2.45;;;0.80;;
56171;SDS011;42052;41.634;-0.946;2022-09-09T04:28:29;1.70;;;0.80;;
56171;SDS011;42052;41.634;-0.946;2022-09-09T04:30:56;3.72;;;1.00;;
56171;SDS011;42052;41.634;-0.946;2022-09-09T04:33:23;1.83;;;0.82;;
56171;SDS011;42052;41.634;-0.946;2022-09-09T04:35:52;2.47;;;0.80;;
56171;SDS011;42052;41.634;-0.946;2022-09-09T04:38:20;2.28;;;0.80;;
56171;SDS011;42052;41.634;-0.946;2022-09-09T04:40:48;1.92;;;0.77;;
56171;SDS011;42052;41.634;-0.946;2022-09-09T04:43:15;3.28;;;0.90;;
56171;SDS011;42052;41.634;-0.946;2022-09-09T04:45:46;1.83;;;0.80;;
56171;SDS011;42052;41.634;-0.946;2022-09-09T04:48:13;1.90;;;0.80;;
56171;SDS011;42052;41.634;-0.946;2022-09-09T04:50:39;1.63;;;0.70;;
56171;SDS011;42052;41.634;-0.946;2022-09-09T04:53:06;3.20;;;0.80;;
56171;SDS011;42052;41.634;-0.946;2022-09-09T04:55:32;2.75;;;1.02;;
56171;SDS011;42052;41.634;-0.946;2022-09-09T04:58:07;4.60;;;1.05;;
56171;SDS011;42052;41.634;-0.946;2022-09-09T05:00:37;1.60;;;0.82;;
56171;SDS011;42052;41.634;-0.946;2022-09-09T05:03:03;2.10;;;0.80;;
56171;SDS011;42052;41.634;-0.946;2022-09-09T05:05:30;3.00;;;0.90;;
56171;SDS011;42052;41.634;-0.946;2022-09-09T05:08:00;2.72;;;0.90;;
56171;SDS011;42052;41.634;-0.946;2022-09-09T05:10:30;3.92;;;0.80;;
56171;SDS011;42052;41.634;-0.946;2022-09-09T05:12:57;4.90;;;1.20;;
56171;SDS011;42052;41.634;-0.946;2022-09-09T05:15:22;5.57;;;1.00;;
56171;SDS011;42052;41.634;-0.946;2022-09-09T05:17:48;5.43;;;1.38;;
56171;SDS011;42052;41.634;-0.946;2022-09-09T05:20:14;4.15;;;1.15;;
56171;SDS011;42052;41.634;-0.946;2022-09-09T05:22:40;9.10;;;1.23;;
56171;SDS011;42052;41.634;-0.946;2022-09-09T05:25:06;5.85;;;1.17;;
56171;SDS011;42052;41.634;-0.946;2022-09-09T05:27:35;5.90;;;1.00;;
56171;SDS011;42052;41.634;-0.946;2022-09-09T05:30:01;7.07;;;1.08;;
56171;SDS011;42052;41.634;-0.946;2022-09-09T05:32:29;5.10;;;1.10;;
56171;SDS011;42052;41.634;-0.946;2022-09-09T05:34:59;3.53;;;0.80;;
56171;SDS011;42052;41.634;-0.946;2022-09-09T05:37:26;6.53;;;1.10;;
56171;SDS011;42052;41.634;-0.946;2022-09-09T05:39:52;3.45;;;1.10;;
56171;SDS011;42052;41.634;-0.946;2022-09-09T05:42:18;4.03;;;1.00;;
56171;SDS011;42052;41.634;-0.946;2022-09-09T05:44:44;4.53;;;0.90;;
56171;SDS011;42052;41.634;-0.946;2022-09-09T05:47:10;3.63;;;1.00;;
56171;SDS011;42052;41.634;-0.946;2022-09-09T05:49:36;2.40;;;0.90;;
56171;SDS011;42052;41.634;-0.946;2022-09-09T05:52:02;6.03;;;1.10;;
56171;SDS011;42052;41.634;-0.946;2022-09-09T05:54:29;2.95;;;0.90;;
56171;SDS011;42052;41.634;-0.946;2022-09-09T05:56:55;1.52;;;0.70;;
56171;SDS011;42052;41.634;-0.946;2022-09-09T05:59:21;2.60;;;0.90;;
56171;SDS011;42052;41.634;-0.946;2022-09-09T06:01:48;2.35;;;0.80;;
56171;SDS011;42052;41.634;-0.946;2022-09-09T06:04:14;2.78;;;1.17;;
56171;SDS011;42052;41.634;-0.946;2022-09-09T06:06:41;3.08;;;0.90;;
56171;SDS011;42052;41.634;-0.946;2022-09-09T06:09:07;2.47;;;1.13;;
56171;SDS011;42052;41.634;-0.946;2022-09-09T06:11:35;5.40;;;1.27;;
56171;SDS011;42052;41.634;-0.946;2022-09-09T06:14:03;1.92;;;1.00;;
56171;SDS011;42052;41.634;-0.946;2022-09-09T06:16:30;2.75;;;1.15;;
56171;SDS011;42052;41.634;-0.946;2022-09-09T06:18:59;3.63;;;1.10;;
56171;SDS011;42052;41.634;-0.946;2022-09-09T06:21:33;2.20;;;1.00;;
56171;SDS011;42052;41.634;-0.946;2022-09-09T06:24:03;2.13;;;1.00;;
56171;SDS011;42052;41.634;-0.946;2022-09-09T06:26:31;2.08;;;1.10;;
56171;SDS011;42052;41.634;-0.946;2022-09-09T06:28:58;2.28;;;0.90;;
56171;SDS011;42052;41.634;-0.946;2022-09-09T06:31:26;3.35;;;1.30;;
56171;SDS011;42052;41.634;-0.946;2022-09-09T06:33:57;2.17;;;1.00;;
56171;SDS011;42052;41.634;-0.946;2022-09-09T06:36:24;2.45;;;0.93;;
56171;SDS011;42052;41.634;-0.946;2022-09-09T06:38:52;2.05;;;0.80;;
56171;SDS011;42052;41.634;-0.946;2022-09-09T06:41:19;2.70;;;0.90;;
56171;SDS011;42052;41.634;-0.946;2022-09-09T06:43:46;2.70;;;0.93;;
56171;SDS011;42052;41.634;-0.946;2022-09-09T06:46:16;1.65;;;0.75;;
56171;SDS011;42052;41.634;-0.946;2022-09-09T06:48:43;1.35;;;0.90;;
56171;SDS011;42052;41.634;-0.946;2022-09-09T06:51:17;3.20;;;1.08;;
56171;SDS011;42052;41.634;-0.946;2022-09-09T06:53:46;1.70;;;0.90;;
56171;SDS011;42052;41.634;-0.946;2022-09-09T06:56:19;2.55;;;1.05;;
56171;SDS011;42052;41.634;-0.946;2022-09-09T06:58:46;3.97;;;1.08;;
56171;SDS011;42052;41.634;-0.946;2022-09-09T07:01:17;1.50;;;0.85;;
56171;SDS011;42052;41.634;-0.946;2022-09-09T07:03:48;3.10;;;0.90;;
56171;SDS011;42052;41.634;-0.946;2022-09-09T07:06:16;2.17;;;0.80;;
56171;SDS011;42052;41.634;-0.946;2022-09-09T07:08:54;3.30;;;0.93;;
56171;SDS011;42052;41.634;-0.946;2022-09-09T07:11:25;1.55;;;0.82;;
56171;SDS011;42052;41.634;-0.946;2022-09-09T07:13:52;2.45;;;0.90;;
56171;SDS011;42052;41.634;-0.946;2022-09-09T07:16:20;2.20;;;0.80;;
56171;SDS011;42052;41.634;-0.946;2022-09-09T07:18:49;3.22;;;1.00;;
56171;SDS011;42052;41.634;-0.946;2022-09-09T07:21:15;2.90;;;1.00;;
56171;SDS011;42052;41.634;-0.946;2022-09-09T07:23:42;1.58;;;0.77;;
56171;SDS011;42052;41.634;-0.946;2022-09-09T07:26:18;2.08;;;0.80;;
56171;SDS011;42052;41.634;-0.946;2022-09-09T07:28:46;1.20;;;0.75;;
56171;SDS011;42052;41.634;-0.946;2022-09-09T07:31:13;2.25;;;0.90;;
56171;SDS011;42052;41.634;-0.946;2022-09-09T07:33:45;2.60;;;0.60;;
56171;SDS011;42052;41.634;-0.946;2022-09-09T07:38:40;2.65;;;0.75;;
56171;SDS011;42052;41.634;-0.946;2022-09-09T07:41:09;1.65;;;0.80;;
56171;SDS011;42052;41.634;-0.946;2022-09-09T07:43:41;3.28;;;0.90;;
56171;SDS011;42052;41.634;-0.946;2022-09-09T07:46:09;1.40;;;0.60;;
56171;SDS011;42052;41.634;-0.946;2022-09-09T07:48:37;3.40;;;0.93;;
56171;SDS011;42052;41.634;-0.946;2022-09-09T07:51:04;3.63;;;0.90;;
56171;SDS011;42052;41.634;-0.946;2022-09-09T07:53:37;2.00;;;0.82;;
56171;SDS011;42052;41.634;-0.946;2022-09-09T07:56:08;1.02;;;0.63;;
56171;SDS011;42052;41.634;-0.946;2022-09-09T07:58:36;1.27;;;0.60;;
56171;SDS011;42052;41.634;-0.946;2022-09-09T08:01:10;2.00;;;0.70;;
56171;SDS011;42052;41.634;-0.946;2022-09-09T08:03:38;1.65;;;0.70;;
56171;SDS011;42052;41.634;-0.946;2022-09-09T08:06:05;1.80;;;0.80;;
56171;SDS011;42052;41.634;-0.946;2022-09-09T08:08:33;1.25;;;0.68;;
56171;SDS011;42052;41.634;-0.946;2022-09-09T08:11:04;1.90;;;0.88;;
56171;SDS011;42052;41.634;-0.946;2022-09-09T08:16:09;1.70;;;0.60;;
56171;SDS011;42052;41.634;-0.946;2022-09-09T08:18:43;0.70;;;0.50;;
56171;SDS011;42052;41.634;-0.946;2022-09-09T08:21:16;1.15;;;0.70;;
56171;SDS011;42052;41.634;-0.946;2022-09-09T08:23:47;1.52;;;0.80;;
56171;SDS011;42052;41.634;-0.946;2022-09-09T08:26:15;1.45;;;0.77;;
56171;SDS011;42052;41.634;-0.946;2022-09-09T08:28:44;1.27;;;0.60;;
56171;SDS011;42052;41.634;-0.946;2022-09-09T08:31:14;1.80;;;0.80;;
56171;SDS011;42052;41.634;-0.946;2022-09-09T08:33:41;1.30;;;0.60;;
56171;SDS011;42052;41.634;-0.946;2022-09-09T08:36:09;2.15;;;1.00;;
56171;SDS011;42052;41.634;-0.946;2022-09-09T08:38:37;1.38;;;0.80;;
56171;SDS011;42052;41.634;-0.946;2022-09-09T08:41:50;1.33;;;0.70;;
56171;SDS011;42052;41.634;-0.946;2022-09-09T08:44:13;1.10;;;0.60;;
56171;SDS011;42052;41.634;-0.946;2022-09-09T08:47:08;1.48;;;0.73;;
56171;SDS011;42052;41.634;-0.946;2022-09-09T08:57:48;1.17;;;0.60;;
56171;SDS011;42052;41.634;-0.946;2022-09-09T09:00:17;1.25;;;0.68;;
56171;SDS011;42052;41.634;-0.946;2022-09-09T09:10:54;1.35;;;0.70;;
56171;SDS011;42052;41.634;-0.946;2022-09-09T09:13:39;1.42;;;0.82;;
56171;SDS011;42052;41.634;-0.946;2022-09-09T09:16:23;1.83;;;0.70;;
56171;SDS011;42052;41.634;-0.946;2022-09-09T09:18:49;1.67;;;0.68;;
56171;SDS011;42052;41.634;-0.946;2022-09-09T09:21:21;1.40;;;0.70;;
56171;SDS011;42052;41.634;-0.946;2022-09-09T09:23:57;0.95;;;0.70;;
56171;SDS011;42052;41.634;-0.946;2022-09-09T09:26:25;1.30;;;0.70;;
56171;SDS011;42052;41.634;-0.946;2022-09-09T09:29:01;1.73;;;0.70;;
56171;SDS011;42052;41.634;-0.946;2022-09-09T09:31:37;2.15;;;0.60;;
56171;SDS011;42052;41.634;-0.946;2022-09-09T09:34:03;2.72;;;0.70;;
56171;SDS011;42052;41.634;-0.946;2022-09-09T09:36:45;2.15;;;0.70;;
56171;SDS011;42052;41.634;-0.946;2022-09-09T09:39:25;1.02;;;0.63;;
56171;SDS011;42052;41.634;-0.946;2022-09-09T09:41:55;1.90;;;0.80;;
56171;SDS011;42052;41.634;-0.946;2022-09-09T09:46:50;1.48;;;0.60;;
56171;SDS011;42052;41.634;-0.946;2022-09-09T09:49:16;1.20;;;0.60;;
56171;SDS011;42052;41.634;-0.946;2022-09-09T09:51:42;0.90;;;0.55;;
56171;SDS011;42052;41.634;-0.946;2022-09-09T09:54:17;0.60;;;0.55;;
56171;SDS011;42052;41.634;-0.946;2022-09-09T09:56:50;0.80;;;0.50;;
56171;SDS011;42052;41.634;-0.946;2022-09-09T10:01:54;1.15;;;0.80;;
56171;SDS011;42052;41.634;-0.946;2022-09-09T10:04:31;2.50;;;0.70;;
56171;SDS011;42052;41.634;-0.946;2022-09-09T10:06:58;0.70;;;0.40;;
56171;SDS011;42052;41.634;-0.946;2022-09-09T10:09:34;1.17;;;0.60;;
56171;SDS011;42052;41.634;-0.946;2022-09-09T10:22:52;1.30;;;0.60;;
56171;SDS011;42052;41.634;-0.946;2022-09-09T10:31:21;0.77;;;0.50;;
56171;SDS011;42052;41.634;-0.946;2022-09-09T10:36:26;1.50;;;0.60;;
56171;SDS011;42052;41.634;-0.946;2022-09-09T10:38:56;0.73;;;0.60;;
56171;SDS011;42052;41.634;-0.946;2022-09-09T10:55:20;1.75;;;0.70;;
56171;SDS011;42052;41.634;-0.946;2022-09-09T10:57:51;2.05;;;0.60;;
56171;SDS011;42052;41.634;-0.946;2022-09-09T11:00:23;0.70;;;0.60;;
56171;SDS011;42052;41.634;-0.946;2022-09-09T11:03:20;2.60;;;0.50;;
56171;SDS011;42052;41.634;-0.946;2022-09-09T11:08:32;0.60;;;0.50;;
56171;SDS011;42052;41.634;-0.946;2022-09-09T11:11:03;0.75;;;0.50;;
56171;SDS011;42052;41.634;-0.946;2022-09-09T11:13:39;0.98;;;0.40;;
56171;SDS011;42052;41.634;-0.946;2022-09-09T11:19:14;1.17;;;0.70;;
56171;SDS011;42052;41.634;-0.946;2022-09-09T11:24:52;1.95;;;0.52;;
56171;SDS011;42052;41.634;-0.946;2022-09-09T11:27:24;1.10;;;0.50;;
56171;SDS011;42052;41.634;-0.946;2022-09-09T11:40:54;1.60;;;0.50;;
56171;SDS011;42052;41.634;-0.946;2022-09-09T11:43:28;1.33;;;0.60;;
56171;SDS011;42052;41.634;-0.946;2022-09-09T11:45:59;0.93;;;0.50;;
56171;SDS011;42052;41.634;-0.946;2022-09-09T11:48:34;0.90;;;0.60;;
56171;SDS011;42052;41.634;-0.946;2022-09-09T11:53:34;1.15;;;0.70;;
56171;SDS011;42052;41.634;-0.946;2022-09-09T11:56:13;1.05;;;0.55;;
56171;SDS011;42052;41.634;-0.946;2022-09-09T11:58:55;0.82;;;0.57;;
56171;SDS011;42052;41.634;-0.946;2022-09-09T12:01:28;1.52;;;0.50;;
56171;SDS011;42052;41.634;-0.946;2022-09-09T12:04:17;0.80;;;0.52;;
56171;SDS011;42052;41.634;-0.946;2022-09-09T12:06:54;0.80;;;0.52;;
56171;SDS011;42052;41.634;-0.946;2022-09-09T12:14:43;1.10;;;0.70;;
56171;SDS011;42052;41.634;-0.946;2022-09-09T12:17:21;0.82;;;0.60;;
56171;SDS011;42052;41.634;-0.946;2022-09-09T12:28:39;0.90;;;0.70;;
56171;SDS011;42052;41.634;-0.946;2022-09-09T12:31:25;0.77;;;0.50;;
56171;SDS011;42052;41.634;-0.946;2022-09-09T12:36:43;1.20;;;0.50;;
56171;SDS011;42052;41.634;-0.946;2022-09-09T12:39:19;0.85;;;0.60;;
56171;SDS011;42052;41.634;-0.946;2022-09-09T12:42:18;0.55;;;0.40;;
56171;SDS011;42052;41.634;-0.946;2022-09-09T12:44:52;1.13;;;0.70;;
56171;SDS011;42052;41.634;-0.946;2022-09-09T12:47:20;1.60;;;0.43;;
56171;SDS011;42052;41.634;-0.946;2022-09-09T12:49:54;0.90;;;0.60;;
56171;SDS011;42052;41.634;-0.946;2022-09-09T12:52:39;1.88;;;0.60;;
56171;SDS011;42052;41.634;-0.946;2022-09-09T12:55:05;0.70;;;0.50;;
56171;SDS011;42052;41.634;-0.946;2022-09-09T12:57:37;0.98;;;0.50;;
56171;SDS011;42052;41.634;-0.946;2022-09-09T13:00:06;0.77;;;0.50;;
56171;SDS011;42052;41.634;-0.946;2022-09-09T13:02:45;0.93;;;0.50;;
56171;SDS011;42052;41.634;-0.946;2022-09-09T13:05:16;1.35;;;0.43;;
56171;SDS011;42052;41.634;-0.946;2022-09-09T13:07:48;1.05;;;0.55;;
56171;SDS011;42052;41.634;-0.946;2022-09-09T13:10:15;2.30;;;0.60;;
56171;SDS011;42052;41.634;-0.946;2022-09-09T13:12:47;1.55;;;0.60;;
56171;SDS011;42052;41.634;-0.946;2022-09-09T13:15:19;3.72;;;0.60;;
56171;SDS011;42052;41.634;-0.946;2022-09-09T13:17:51;0.65;;;0.50;;
56171;SDS011;42052;41.634;-0.946;2022-09-09T13:22:47;1.15;;;0.60;;
56171;SDS011;42052;41.634;-0.946;2022-09-09T13:33:31;1.60;;;0.60;;
56171;SDS011;42052;41.634;-0.946;2022-09-09T13:35:55;1.13;;;0.60;;
56171;SDS011;42052;41.634;-0.946;2022-09-09T13:38:25;1.45;;;0.47;;
56171;SDS011;42052;41.634;-0.946;2022-09-09T13:41:00;1.42;;;0.57;;
56171;SDS011;42052;41.634;-0.946;2022-09-09T13:43:42;2.05;;;0.60;;
56171;SDS011;42052;41.634;-0.946;2022-09-09T13:54:06;0.65;;;0.43;;
56171;SDS011;42052;41.634;-0.946;2022-09-09T13:56:34;1.00;;;0.50;;
56171;SDS011;42052;41.634;-0.946;2022-09-09T13:59:02;1.02;;;0.60;;
56171;SDS011;42052;41.634;-0.946;2022-09-09T14:01:29;1.25;;;0.40;;
56171;SDS011;42052;41.634;-0.946;2022-09-09T14:03:55;1.70;;;0.50;;
56171;SDS011;42052;41.634;-0.946;2022-09-09T14:06:21;0.82;;;0.45;;
56171;SDS011;42052;41.634;-0.946;2022-09-09T14:08:48;0.65;;;0.47;;
56171;SDS011;42052;41.634;-0.946;2022-09-09T14:11:15;1.65;;;0.50;;
56171;SDS011;42052;41.634;-0.946;2022-09-09T14:13:42;1.15;;;0.57;;
56171;SDS011;42052;41.634;-0.946;2022-09-09T14:16:08;1.60;;;0.52;;
56171;SDS011;42052;41.634;-0.946;2022-09-09T14:18:34;1.70;;;0.50;;
56171;SDS011;42052;41.634;-0.946;2022-09-09T14:21:01;0.90;;;0.50;;
56171;SDS011;42052;41.634;-0.946;2022-09-09T14:23:28;1.48;;;0.52;;
56171;SDS011;42052;41.634;-0.946;2022-09-09T14:25:54;1.08;;;0.50;;
56171;SDS011;42052;41.634;-0.946;2022-09-09T14:28:20;1.05;;;0.40;;
56171;SDS011;42052;41.634;-0.946;2022-09-09T14:30:46;0.70;;;0.43;;
56171;SDS011;42052;41.634;-0.946;2022-09-09T14:33:14;0.80;;;0.43;;
56171;SDS011;42052;41.634;-0.946;2022-09-09T14:35:41;1.52;;;0.50;;
56171;SDS011;42052;41.634;-0.946;2022-09-09T14:38:08;1.10;;;0.50;;
56171;SDS011;42052;41.634;-0.946;2022-09-09T14:40:35;1.42;;;0.40;;
56171;SDS011;42052;41.634;-0.946;2022-09-09T14:43:02;0.93;;;0.50;;
56171;SDS011;42052;41.634;-0.946;2022-09-09T14:45:29;3.15;;;0.60;;
56171;SDS011;42052;41.634;-0.946;2022-09-09T14:47:55;1.55;;;0.60;;
56171;SDS011;42052;41.634;-0.946;2022-09-09T14:50:22;1.58;;;0.60;;
56171;SDS011;42052;41.634;-0.946;2022-09-09T14:52:48;2.10;;;0.55;;
56171;SDS011;42052;41.634;-0.946;2022-09-09T14:55:15;1.23;;;0.50;;
56171;SDS011;42052;41.634;-0.946;2022-09-09T14:57:42;2.28;;;0.60;;
56171;SDS011;42052;41.634;-0.946;2022-09-09T15:00:09;1.45;;;0.60;;
56171;SDS011;42052;41.634;-0.946;2022-09-09T15:02:36;0.90;;;0.40;;
56171;SDS011;42052;41.634;-0.946;2022-09-09T15:05:03;1.25;;;0.52;;
56171;SDS011;42052;41.634;-0.946;2022-09-09T15:07:29;0.40;;;0.30;;
56171;SDS011;42052;41.634;-0.946;2022-09-09T15:09:57;1.58;;;0.52;;
56171;SDS011;42052;41.634;-0.946;2022-09-09T15:12:23;1.00;;;0.50;;
56171;SDS011;42052;41.634;-0.946;2022-09-09T15:14:49;1.10;;;0.57;;
56171;SDS011;42052;41.634;-0.946;2022-09-09T15:17:15;0.85;;;0.50;;
56171;SDS011;42052;41.634;-0.946;2022-09-09T15:19:41;0.63;;;0.47;;
56171;SDS011;42052;41.634;-0.946;2022-09-09T15:22:07;1.23;;;0.52;;
56171;SDS011;42052;41.634;-0.946;2022-09-09T15:24:34;1.23;;;0.60;;
56171;SDS011;42052;41.634;-0.946;2022-09-09T15:27:00;0.63;;;0.50;;
56171;SDS011;42052;41.634;-0.946;2022-09-09T15:29:27;0.60;;;0.38;;
56171;SDS011;42052;41.634;-0.946;2022-09-09T15:31:53;0.80;;;0.40;;
56171;SDS011;42052;41.634;-0.946;2022-09-09T15:34:20;0.57;;;0.40;;
56171;SDS011;42052;41.634;-0.946;2022-09-09T15:36:46;0.82;;;0.50;;
56171;SDS011;42052;41.634;-0.946;2022-09-09T15:44:03;0.70;;;0.40;;
56171;SDS011;42052;41.634;-0.946;2022-09-09T15:46:34;0.50;;;0.40;;
56171;SDS011;42052;41.634;-0.946;2022-09-09T15:49:11;1.70;;;0.50;;
56171;SDS011;42052;41.634;-0.946;2022-09-09T15:51:40;1.15;;;0.40;;
56171;SDS011;42052;41.634;-0.946;2022-09-09T15:54:07;0.90;;;0.60;;
56171;SDS011;42052;41.634;-0.946;2022-09-09T15:56:34;0.65;;;0.60;;
56171;SDS011;42052;41.634;-0.946;2022-09-09T15:59:00;1.23;;;0.63;;
56171;SDS011;42052;41.634;-0.946;2022-09-09T16:01:28;1.98;;;0.68;;
56171;SDS011;42052;41.634;-0.946;2022-09-09T16:03:55;0.85;;;0.50;;
56171;SDS011;42052;41.634;-0.946;2022-09-09T16:06:22;1.08;;;0.60;;
56171;SDS011;42052;41.634;-0.946;2022-09-09T16:08:50;1.13;;;0.65;;
56171;SDS011;42052;41.634;-0.946;2022-09-09T16:11:20;0.90;;;0.50;;
56171;SDS011;42052;41.634;-0.946;2022-09-09T16:13:48;0.70;;;0.50;;
56171;SDS011;42052;41.634;-0.946;2022-09-09T16:16:16;0.95;;;0.60;;
56171;SDS011;42052;41.634;-0.946;2022-09-09T16:18:48;1.02;;;0.60;;
56171;SDS011;42052;41.634;-0.946;2022-09-09T16:21:18;0.70;;;0.40;;
56171;SDS011;42052;41.634;-0.946;2022-09-09T16:23:45;0.75;;;0.52;;
56171;SDS011;42052;41.634;-0.946;2022-09-09T16:26:12;0.73;;;0.47;;
56171;SDS011;42052;41.634;-0.946;2022-09-09T16:28:40;0.80;;;0.50;;
56171;SDS011;42052;41.634;-0.946;2022-09-09T16:31:10;0.80;;;0.60;;
56171;SDS011;42052;41.634;-0.946;2022-09-09T16:33:39;0.52;;;0.50;;
56171;SDS011;42052;41.634;-0.946;2022-09-09T16:36:07;1.15;;;0.50;;
56171;SDS011;42052;41.634;-0.946;2022-09-09T16:38:33;0.90;;;0.60;;
56171;SDS011;42052;41.634;-0.946;2022-09-09T16:41:01;0.95;;;0.60;;
56171;SDS011;42052;41.634;-0.946;2022-09-09T16:43:29;0.88;;;0.57;;
56171;SDS011;42052;41.634;-0.946;2022-09-09T16:45:55;0.73;;;0.57;;
56171;SDS011;42052;41.634;-0.946;2022-09-09T16:48:21;0.95;;;0.60;;
56171;SDS011;42052;41.634;-0.946;2022-09-09T16:50:47;0.68;;;0.50;;
56171;SDS011;42052;41.634;-0.946;2022-09-09T16:53:13;0.65;;;0.52;;
56171;SDS011;42052;41.634;-0.946;2022-09-09T16:55:40;1.58;;;0.70;;
56171;SDS011;42052;41.634;-0.946;2022-09-09T16:58:07;1.00;;;0.60;;
56171;SDS011;42052;41.634;-0.946;2022-09-09T17:00:35;0.90;;;0.50;;
56171;SDS011;42052;41.634;-0.946;2022-09-09T17:03:01;1.40;;;0.65;;
56171;SDS011;42052;41.634;-0.946;2022-09-09T17:05:27;0.77;;;0.60;;
56171;SDS011;42052;41.634;-0.946;2022-09-09T17:07:54;0.70;;;0.50;;
56171;SDS011;42052;41.634;-0.946;2022-09-09T17:10:22;1.05;;;0.60;;
56171;SDS011;42052;41.634;-0.946;2022-09-09T17:12:50;1.38;;;0.68;;
56171;SDS011;42052;41.634;-0.946;2022-09-09T17:15:16;1.05;;;0.60;;
56171;SDS011;42052;41.634;-0.946;2022-09-09T17:17:43;1.15;;;0.82;;
56171;SDS011;42052;41.634;-0.946;2022-09-09T17:20:10;2.50;;;0.80;;
56171;SDS011;42052;41.634;-0.946;2022-09-09T17:22:36;0.85;;;0.68;;
56171;SDS011;42052;41.634;-0.946;2022-09-09T17:25:02;1.30;;;0.80;;
56171;SDS011;42052;41.634;-0.946;2022-09-09T17:27:29;1.00;;;0.70;;
56171;SDS011;42052;41.634;-0.946;2022-09-09T17:29:56;1.50;;;0.80;;
56171;SDS011;42052;41.634;-0.946;2022-09-09T17:32:23;1.20;;;0.55;;
56171;SDS011;42052;41.634;-0.946;2022-09-09T17:34:49;0.98;;;0.60;;
56171;SDS011;42052;41.634;-0.946;2022-09-09T17:37:15;1.05;;;0.70;;
56171;SDS011;42052;41.634;-0.946;2022-09-09T17:39:41;0.95;;;0.60;;
56171;SDS011;42052;41.634;-0.946;2022-09-09T17:42:07;2.25;;;0.60;;
56171;SDS011;42052;41.634;-0.946;2022-09-09T17:44:33;0.70;;;0.52;;
56171;SDS011;42052;41.634;-0.946;2022-09-09T17:47:00;0.98;;;0.65;;